sensor_id;sensor_type;location;lat;lon;timestamp;P1;durP1;ratioP1;P2;durP2;ratioP2
31390;SDS011;18022;45.492;11.548;2023-07-30T00:01:55;5.70;;;5.10;;
31390;SDS011;18022;45.492;11.548;2023-07-30T00:04:21;6.20;;;5.15;;
31390;SDS011;18022;45.492;11.548;2023-07-30T00:06:47;6.88;;;5.13;;
31390;SDS011;18022;45.492;11.548;2023-07-30T00:09:12;9.73;;;5.45;;
31390;SDS011;18022;45.492;11.548;2023-07-30T00:11:38;7.85;;;4.85;;
31390;SDS011;18022;45.492;11.548;2023-07-30T00:14:04;7.32;;;5.18;;
31390;SDS011;18022;45.492;11.548;2023-07-30T00:16:30;8.00;;;5.68;;
31390;SDS011;18022;45.492;11.548;2023-07-30T00:18:56;5.97;;;5.38;;
31390;SDS011;18022;45.492;11.548;2023-07-30T00:21:22;10.65;;;5.95;;
31390;SDS011;18022;45.492;11.548;2023-07-30T00:23:48;6.10;;;5.50;;
31390;SDS011;18022;45.492;11.548;2023-07-30T00:26:13;8.30;;;6.25;;
31390;SDS011;18022;45.492;11.548;2023-07-30T00:28:39;7.72;;;5.95;;
31390;SDS011;18022;45.492;11.548;2023-07-30T00:31:05;8.77;;;6.60;;
31390;SDS011;18022;45.492;11.548;2023-07-30T00:33:30;12.82;;;7.43;;
31390;SDS011;18022;45.492;11.548;2023-07-30T00:35:56;7.95;;;6.90;;
31390;SDS011;18022;45.492;11.548;2023-07-30T00:38:22;8.77;;;7.18;;
31390;SDS011;18022;45.492;11.548;2023-07-30T00:40:48;11.23;;;6.63;;
31390;SDS011;18022;45.492;11.548;2023-07-30T00:43:14;7.78;;;3.38;;
31390;SDS011;18022;45.492;11.548;2023-07-30T00:45:40;9.50;;;2.30;;
31390;SDS011;18022;45.492;11.548;2023-07-30T00:48:08;6.45;;;2.17;;
31390;SDS011;18022;45.492;11.548;2023-07-30T00:50:35;3.15;;;1.45;;
31390;SDS011;18022;45.492;11.548;2023-07-30T00:53:00;3.90;;;1.58;;
31390;SDS011;18022;45.492;11.548;2023-07-30T00:55:26;6.60;;;1.67;;
31390;SDS011;18022;45.492;11.548;2023-07-30T00:57:52;2.13;;;1.08;;
31390;SDS011;18022;45.492;11.548;2023-07-30T01:00:18;8.88;;;1.70;;
31390;SDS011;18022;45.492;11.548;2023-07-30T01:02:44;4.18;;;1.00;;
31390;SDS011;18022;45.492;11.548;2023-07-30T01:05:10;5.20;;;1.90;;
31390;SDS011;18022;45.492;11.548;2023-07-30T01:07:35;3.42;;;1.23;;
31390;SDS011;18022;45.492;11.548;2023-07-30T01:10:01;4.65;;;1.80;;
31390;SDS011;18022;45.492;11.548;2023-07-30T01:12:28;2.13;;;1.50;;
31390;SDS011;18022;45.492;11.548;2023-07-30T01:14:56;2.63;;;1.40;;
31390;SDS011;18022;45.492;11.548;2023-07-30T01:17:23;2.00;;;1.17;;
31390;SDS011;18022;45.492;11.548;2023-07-30T01:19:49;1.98;;;1.30;;
31390;SDS011;18022;45.492;11.548;2023-07-30T01:22:15;2.08;;;1.30;;
31390;SDS011;18022;45.492;11.548;2023-07-30T01:24:41;2.92;;;1.27;;
31390;SDS011;18022;45.492;11.548;2023-07-30T01:27:07;2.85;;;1.35;;
31390;SDS011;18022;45.492;11.548;2023-07-30T01:32:04;1.90;;;1.42;;
31390;SDS011;18022;45.492;11.548;2023-07-30T01:34:33;3.25;;;1.83;;
31390;SDS011;18022;45.492;11.548;2023-07-30T01:37:00;1.98;;;1.38;;
31390;SDS011;18022;45.492;11.548;2023-07-30T01:39:27;2.00;;;1.20;;
31390;SDS011;18022;45.492;11.548;2023-07-30T01:41:53;1.50;;;1.30;;
31390;SDS011;18022;45.492;11.548;2023-07-30T01:44:19;2.10;;;1.05;;
31390;SDS011;18022;45.492;11.548;2023-07-30T01:46:45;1.83;;;1.33;;
31390;SDS011;18022;45.492;11.548;2023-07-30T01:49:11;1.98;;;1.20;;
31390;SDS011;18022;45.492;11.548;2023-07-30T01:51:37;1.23;;;1.00;;
31390;SDS011;18022;45.492;11.548;2023-07-30T01:54:02;1.83;;;1.17;;
31390;SDS011;18022;45.492;11.548;2023-07-30T01:56:28;1.70;;;1.10;;
31390;SDS011;18022;45.492;11.548;2023-07-30T01:58:54;1.20;;;1.10;;
31390;SDS011;18022;45.492;11.548;2023-07-30T02:01:20;2.85;;;1.30;;
31390;SDS011;18022;45.492;11.548;2023-07-30T02:03:45;1.67;;;1.10;;
31390;SDS011;18022;45.492;11.548;2023-07-30T02:06:11;2.28;;;1.30;;
31390;SDS011;18022;45.492;11.548;2023-07-30T02:08:37;1.63;;;1.38;;
31390;SDS011;18022;45.492;11.548;2023-07-30T02:11:03;2.15;;;1.10;;
31390;SDS011;18022;45.492;11.548;2023-07-30T02:13:29;2.30;;;1.25;;
31390;SDS011;18022;45.492;11.548;2023-07-30T02:15:54;2.35;;;1.08;;
31390;SDS011;18022;45.492;11.548;2023-07-30T02:18:20;2.38;;;1.20;;
31390;SDS011;18022;45.492;11.548;2023-07-30T02:20:46;1.20;;;0.98;;
31390;SDS011;18022;45.492;11.548;2023-07-30T02:23:13;1.67;;;1.27;;
31390;SDS011;18022;45.492;11.548;2023-07-30T02:25:41;1.80;;;1.25;;
31390;SDS011;18022;45.492;11.548;2023-07-30T02:28:06;3.47;;;1.27;;
31390;SDS011;18022;45.492;11.548;2023-07-30T02:30:33;2.00;;;0.98;;
31390;SDS011;18022;45.492;11.548;2023-07-30T02:32:59;2.33;;;1.42;;
31390;SDS011;18022;45.492;11.548;2023-07-30T02:35:25;1.60;;;1.23;;
31390;SDS011;18022;45.492;11.548;2023-07-30T02:37:50;3.08;;;1.70;;
31390;SDS011;18022;45.492;11.548;2023-07-30T02:40:16;1.85;;;1.15;;
31390;SDS011;18022;45.492;11.548;2023-07-30T02:42:42;3.03;;;1.67;;
31390;SDS011;18022;45.492;11.548;2023-07-30T02:45:08;1.83;;;1.45;;
31390;SDS011;18022;45.492;11.548;2023-07-30T02:47:33;2.53;;;2.30;;
31390;SDS011;18022;45.492;11.548;2023-07-30T02:49:59;2.95;;;2.75;;
31390;SDS011;18022;45.492;11.548;2023-07-30T02:52:25;4.07;;;2.80;;
31390;SDS011;18022;45.492;11.548;2023-07-30T02:54:51;5.03;;;3.63;;
31390;SDS011;18022;45.492;11.548;2023-07-30T02:57:16;3.65;;;3.30;;
31390;SDS011;18022;45.492;11.548;2023-07-30T02:59:42;7.35;;;4.05;;
31390;SDS011;18022;45.492;11.548;2023-07-30T03:02:08;5.85;;;3.95;;
31390;SDS011;18022;45.492;11.548;2023-07-30T03:04:34;4.03;;;3.63;;
31390;SDS011;18022;45.492;11.548;2023-07-30T03:06:59;6.18;;;4.70;;
31390;SDS011;18022;45.492;11.548;2023-07-30T03:09:25;3.13;;;2.80;;
31390;SDS011;18022;45.492;11.548;2023-07-30T03:11:52;2.17;;;1.95;;
31390;SDS011;18022;45.492;11.548;2023-07-30T03:14:18;2.25;;;1.73;;
31390;SDS011;18022;45.492;11.548;2023-07-30T03:16:46;2.42;;;1.83;;
31390;SDS011;18022;45.492;11.548;2023-07-30T03:19:12;3.67;;;1.93;;
31390;SDS011;18022;45.492;11.548;2023-07-30T03:21:38;3.25;;;2.08;;
31390;SDS011;18022;45.492;11.548;2023-07-30T03:24:04;1.95;;;1.85;;
31390;SDS011;18022;45.492;11.548;2023-07-30T03:26:30;4.50;;;2.40;;
31390;SDS011;18022;45.492;11.548;2023-07-30T03:28:55;5.65;;;2.17;;
31390;SDS011;18022;45.492;11.548;2023-07-30T03:31:21;3.08;;;2.65;;
31390;SDS011;18022;45.492;11.548;2023-07-30T03:33:47;2.70;;;2.00;;
31390;SDS011;18022;45.492;11.548;2023-07-30T03:36:12;2.85;;;2.60;;
31390;SDS011;18022;45.492;11.548;2023-07-30T03:38:39;3.90;;;2.97;;
31390;SDS011;18022;45.492;11.548;2023-07-30T03:41:05;3.33;;;2.85;;
31390;SDS011;18022;45.492;11.548;2023-07-30T03:43:32;4.07;;;2.88;;
31390;SDS011;18022;45.492;11.548;2023-07-30T03:45:58;5.38;;;2.83;;
31390;SDS011;18022;45.492;11.548;2023-07-30T03:48:23;3.20;;;2.88;;
31390;SDS011;18022;45.492;11.548;2023-07-30T03:50:49;4.72;;;3.65;;
31390;SDS011;18022;45.492;11.548;2023-07-30T03:53:15;3.50;;;3.20;;
31390;SDS011;18022;45.492;11.548;2023-07-30T03:55:41;4.72;;;3.45;;
31390;SDS011;18022;45.492;11.548;2023-07-30T03:58:06;4.88;;;3.97;;
31390;SDS011;18022;45.492;11.548;2023-07-30T04:00:33;5.57;;;4.32;;
31390;SDS011;18022;45.492;11.548;2023-07-30T04:02:58;9.73;;;5.47;;
31390;SDS011;18022;45.492;11.548;2023-07-30T04:05:24;7.15;;;5.75;;
31390;SDS011;18022;45.492;11.548;2023-07-30T04:07:50;7.32;;;5.80;;
31390;SDS011;18022;45.492;11.548;2023-07-30T04:10:16;7.32;;;6.63;;
31390;SDS011;18022;45.492;11.548;2023-07-30T04:12:41;7.32;;;6.63;;
31390;SDS011;18022;45.492;11.548;2023-07-30T04:15:07;11.23;;;7.00;;
31390;SDS011;18022;45.492;11.548;2023-07-30T04:17:34;9.50;;;6.80;;
31390;SDS011;18022;45.492;11.548;2023-07-30T04:20:01;8.75;;;6.38;;
31390;SDS011;18022;45.492;11.548;2023-07-30T04:22:27;7.35;;;6.40;;
31390;SDS011;18022;45.492;11.548;2023-07-30T04:24:53;7.90;;;7.20;;
31390;SDS011;18022;45.492;11.548;2023-07-30T04:27:19;6.85;;;6.25;;
31390;SDS011;18022;45.492;11.548;2023-07-30T04:29:45;8.50;;;6.40;;
31390;SDS011;18022;45.492;11.548;2023-07-30T04:32:10;7.07;;;5.93;;
31390;SDS011;18022;45.492;11.548;2023-07-30T04:34:36;9.27;;;5.53;;
31390;SDS011;18022;45.492;11.548;2023-07-30T04:37:02;8.40;;;5.90;;
31390;SDS011;18022;45.492;11.548;2023-07-30T04:39:28;8.10;;;6.28;;
31390;SDS011;18022;45.492;11.548;2023-07-30T04:41:54;7.40;;;6.50;;
31390;SDS011;18022;45.492;11.548;2023-07-30T04:44:20;10.25;;;8.00;;
31390;SDS011;18022;45.492;11.548;2023-07-30T04:46:46;12.25;;;9.52;;
31390;SDS011;18022;45.492;11.548;2023-07-30T04:49:11;10.27;;;9.18;;
31390;SDS011;18022;45.492;11.548;2023-07-30T04:51:37;11.30;;;8.52;;
31390;SDS011;18022;45.492;11.548;2023-07-30T04:54:03;9.57;;;8.40;;
31390;SDS011;18022;45.492;11.548;2023-07-30T04:56:29;10.27;;;9.27;;
31390;SDS011;18022;45.492;11.548;2023-07-30T04:58:54;10.00;;;9.05;;
31390;SDS011;18022;45.492;11.548;2023-07-30T05:01:20;11.60;;;8.85;;
31390;SDS011;18022;45.492;11.548;2023-07-30T05:03:46;12.68;;;8.85;;
31390;SDS011;18022;45.492;11.548;2023-07-30T05:06:12;12.48;;;9.15;;
31390;SDS011;18022;45.492;11.548;2023-07-30T05:08:37;9.48;;;8.57;;
31390;SDS011;18022;45.492;11.548;2023-07-30T05:11:03;10.30;;;8.18;;
31390;SDS011;18022;45.492;11.548;2023-07-30T05:13:28;9.73;;;8.73;;
31390;SDS011;18022;45.492;11.548;2023-07-30T05:15:54;11.68;;;9.13;;
31390;SDS011;18022;45.492;11.548;2023-07-30T05:18:20;9.85;;;8.93;;
31390;SDS011;18022;45.492;11.548;2023-07-30T05:20:46;9.85;;;8.43;;
31390;SDS011;18022;45.492;11.548;2023-07-30T05:23:11;8.63;;;7.45;;
31390;SDS011;18022;45.492;11.548;2023-07-30T05:25:37;8.85;;;7.55;;
31390;SDS011;18022;45.492;11.548;2023-07-30T05:28:03;8.75;;;7.60;;
31390;SDS011;18022;45.492;11.548;2023-07-30T05:30:29;9.88;;;7.60;;
31390;SDS011;18022;45.492;11.548;2023-07-30T05:32:54;8.50;;;7.60;;
31390;SDS011;18022;45.492;11.548;2023-07-30T05:35:20;8.57;;;7.68;;
31390;SDS011;18022;45.492;11.548;2023-07-30T05:37:46;8.63;;;7.82;;
31390;SDS011;18022;45.492;11.548;2023-07-30T05:40:12;9.32;;;8.15;;
31390;SDS011;18022;45.492;11.548;2023-07-30T05:42:38;10.45;;;8.00;;
31390;SDS011;18022;45.492;11.548;2023-07-30T05:45:03;10.27;;;7.75;;
31390;SDS011;18022;45.492;11.548;2023-07-30T05:47:29;9.13;;;8.23;;
31390;SDS011;18022;45.492;11.548;2023-07-30T05:49:55;9.60;;;7.93;;
31390;SDS011;18022;45.492;11.548;2023-07-30T05:52:21;10.63;;;8.05;;
31390;SDS011;18022;45.492;11.548;2023-07-30T05:54:46;9.55;;;8.52;;
31390;SDS011;18022;45.492;11.548;2023-07-30T05:57:12;11.73;;;8.18;;
31390;SDS011;18022;45.492;11.548;2023-07-30T05:59:38;8.70;;;7.90;;
31390;SDS011;18022;45.492;11.548;2023-07-30T06:02:04;8.68;;;7.75;;
31390;SDS011;18022;45.492;11.548;2023-07-30T06:04:30;7.68;;;6.90;;
31390;SDS011;18022;45.492;11.548;2023-07-30T06:06:56;7.82;;;7.03;;
31390;SDS011;18022;45.492;11.548;2023-07-30T06:09:23;8.73;;;7.57;;
31390;SDS011;18022;45.492;11.548;2023-07-30T06:11:48;8.38;;;7.47;;
31390;SDS011;18022;45.492;11.548;2023-07-30T06:14:14;8.95;;;7.68;;
31390;SDS011;18022;45.492;11.548;2023-07-30T06:16:40;11.10;;;7.60;;
31390;SDS011;18022;45.492;11.548;2023-07-30T06:19:05;7.68;;;6.93;;
31390;SDS011;18022;45.492;11.548;2023-07-30T06:21:31;5.30;;;4.80;;
31390;SDS011;18022;45.492;11.548;2023-07-30T06:23:57;3.95;;;2.92;;
31390;SDS011;18022;45.492;11.548;2023-07-30T06:26:22;2.85;;;2.35;;
31390;SDS011;18022;45.492;11.548;2023-07-30T06:28:48;2.63;;;2.42;;
31390;SDS011;18022;45.492;11.548;2023-07-30T06:31:14;3.72;;;3.20;;
31390;SDS011;18022;45.492;11.548;2023-07-30T06:33:39;4.75;;;2.58;;
31390;SDS011;18022;45.492;11.548;2023-07-30T06:36:05;6.70;;;2.70;;
31390;SDS011;18022;45.492;11.548;2023-07-30T06:38:31;3.05;;;2.50;;
31390;SDS011;18022;45.492;11.548;2023-07-30T06:40:57;4.80;;;2.72;;
31390;SDS011;18022;45.492;11.548;2023-07-30T06:43:23;3.70;;;2.05;;
31390;SDS011;18022;45.492;11.548;2023-07-30T06:45:49;2.65;;;2.45;;
31390;SDS011;18022;45.492;11.548;2023-07-30T06:48:14;3.47;;;3.10;;
31390;SDS011;18022;45.492;11.548;2023-07-30T06:50:41;2.90;;;2.70;;
31390;SDS011;18022;45.492;11.548;2023-07-30T06:53:07;3.55;;;2.90;;
31390;SDS011;18022;45.492;11.548;2023-07-30T06:55:32;3.90;;;3.13;;
31390;SDS011;18022;45.492;11.548;2023-07-30T06:57:58;3.95;;;2.70;;
31390;SDS011;18022;45.492;11.548;2023-07-30T07:00:24;2.65;;;2.45;;
31390;SDS011;18022;45.492;11.548;2023-07-30T07:02:50;2.40;;;2.20;;
31390;SDS011;18022;45.492;11.548;2023-07-30T07:05:15;3.60;;;2.20;;
31390;SDS011;18022;45.492;11.548;2023-07-30T07:07:42;3.55;;;1.90;;
31390;SDS011;18022;45.492;11.548;2023-07-30T07:10:08;4.78;;;2.42;;
31390;SDS011;18022;45.492;11.548;2023-07-30T07:12:35;1.80;;;1.70;;
31390;SDS011;18022;45.492;11.548;2023-07-30T07:15:03;2.25;;;2.05;;
31390;SDS011;18022;45.492;11.548;2023-07-30T07:17:29;2.95;;;2.00;;
31390;SDS011;18022;45.492;11.548;2023-07-30T07:19:56;2.33;;;1.70;;
31390;SDS011;18022;45.492;11.548;2023-07-30T07:22:23;2.08;;;1.50;;
31390;SDS011;18022;45.492;11.548;2023-07-30T07:24:49;2.03;;;1.70;;
31390;SDS011;18022;45.492;11.548;2023-07-30T07:27:17;1.65;;;1.23;;
31390;SDS011;18022;45.492;11.548;2023-07-30T07:29:43;1.95;;;1.60;;
31390;SDS011;18022;45.492;11.548;2023-07-30T07:32:09;3.22;;;1.40;;
31390;SDS011;18022;45.492;11.548;2023-07-30T07:34:35;1.60;;;1.50;;
31390;SDS011;18022;45.492;11.548;2023-07-30T07:37:01;1.55;;;1.30;;
31390;SDS011;18022;45.492;11.548;2023-07-30T07:39:28;1.35;;;1.25;;
31390;SDS011;18022;45.492;11.548;2023-07-30T07:41:53;4.03;;;1.40;;
31390;SDS011;18022;45.492;11.548;2023-07-30T07:44:20;1.73;;;1.50;;
31390;SDS011;18022;45.492;11.548;2023-07-30T07:46:46;1.50;;;1.20;;
31390;SDS011;18022;45.492;11.548;2023-07-30T07:49:12;3.42;;;1.42;;
31390;SDS011;18022;45.492;11.548;2023-07-30T07:51:38;2.13;;;1.25;;
31390;SDS011;18022;45.492;11.548;2023-07-30T07:54:04;2.25;;;1.42;;
31390;SDS011;18022;45.492;11.548;2023-07-30T07:56:30;2.70;;;1.42;;
31390;SDS011;18022;45.492;11.548;2023-07-30T07:58:56;1.87;;;1.43;;
31390;SDS011;18022;45.492;11.548;2023-07-30T08:01:22;1.70;;;1.33;;
31390;SDS011;18022;45.492;11.548;2023-07-30T08:03:48;2.13;;;1.17;;
31390;SDS011;18022;45.492;11.548;2023-07-30T08:06:13;2.58;;;1.25;;
31390;SDS011;18022;45.492;11.548;2023-07-30T08:08:39;1.73;;;1.25;;
31390;SDS011;18022;45.492;11.548;2023-07-30T08:11:05;2.70;;;2.03;;
31390;SDS011;18022;45.492;11.548;2023-07-30T08:13:32;1.77;;;1.58;;
31390;SDS011;18022;45.492;11.548;2023-07-30T08:15:58;1.92;;;1.42;;
31390;SDS011;18022;45.492;11.548;2023-07-30T08:18:24;1.45;;;1.30;;
31390;SDS011;18022;45.492;11.548;2023-07-30T08:20:50;1.70;;;1.60;;
31390;SDS011;18022;45.492;11.548;2023-07-30T08:23:15;3.38;;;1.80;;
31390;SDS011;18022;45.492;11.548;2023-07-30T08:25:41;1.70;;;1.60;;
31390;SDS011;18022;45.492;11.548;2023-07-30T08:28:07;1.48;;;1.38;;
31390;SDS011;18022;45.492;11.548;2023-07-30T08:30:32;1.17;;;1.08;;
31390;SDS011;18022;45.492;11.548;2023-07-30T08:32:58;1.25;;;1.15;;
31390;SDS011;18022;45.492;11.548;2023-07-30T08:35:24;2.42;;;1.27;;
31390;SDS011;18022;45.492;11.548;2023-07-30T08:40:17;1.10;;;1.00;;
31390;SDS011;18022;45.492;11.548;2023-07-30T08:42:43;2.13;;;1.50;;
31390;SDS011;18022;45.492;11.548;2023-07-30T08:45:09;1.77;;;1.20;;
31390;SDS011;18022;45.492;11.548;2023-07-30T08:47:35;1.80;;;1.42;;
31390;SDS011;18022;45.492;11.548;2023-07-30T08:50:01;1.92;;;1.35;;
31390;SDS011;18022;45.492;11.548;2023-07-30T08:52:27;1.50;;;1.40;;
31390;SDS011;18022;45.492;11.548;2023-07-30T08:54:55;1.75;;;1.30;;
31390;SDS011;18022;45.492;11.548;2023-07-30T08:57:23;1.30;;;1.20;;
31390;SDS011;18022;45.492;11.548;2023-07-30T08:59:52;1.38;;;1.27;;
31390;SDS011;18022;45.492;11.548;2023-07-30T09:03:07;1.30;;;1.17;;
31390;SDS011;18022;45.492;11.548;2023-07-30T09:05:22;4.63;;;1.65;;
31390;SDS011;18022;45.492;11.548;2023-07-30T09:07:48;4.20;;;1.50;;
31390;SDS011;18022;45.492;11.548;2023-07-30T09:10:14;1.40;;;1.30;;
31390;SDS011;18022;45.492;11.548;2023-07-30T09:12:40;1.88;;;1.40;;
31390;SDS011;18022;45.492;11.548;2023-07-30T09:15:06;2.25;;;1.40;;
31390;SDS011;18022;45.492;11.548;2023-07-30T09:17:32;5.03;;;1.67;;
31390;SDS011;18022;45.492;11.548;2023-07-30T09:20:05;2.17;;;1.60;;
31390;SDS011;18022;45.492;11.548;2023-07-30T09:22:32;1.38;;;1.20;;
31390;SDS011;18022;45.492;11.548;2023-07-30T09:25:01;1.80;;;1.50;;
31390;SDS011;18022;45.492;11.548;2023-07-30T09:27:28;1.67;;;1.48;;
31390;SDS011;18022;45.492;11.548;2023-07-30T09:29:56;1.58;;;1.48;;
31390;SDS011;18022;45.492;11.548;2023-07-30T09:32:29;1.73;;;1.63;;
31390;SDS011;18022;45.492;11.548;2023-07-30T09:35:07;1.80;;;1.70;;
31390;SDS011;18022;45.492;11.548;2023-07-30T09:37:38;1.87;;;1.73;;
31390;SDS011;18022;45.492;11.548;2023-07-30T09:40:06;2.28;;;1.95;;
31390;SDS011;18022;45.492;11.548;2023-07-30T09:42:42;2.85;;;1.58;;
31390;SDS011;18022;45.492;11.548;2023-07-30T09:45:22;3.53;;;1.60;;
31390;SDS011;18022;45.492;11.548;2023-07-30T09:47:49;1.98;;;1.73;;
31390;SDS011;18022;45.492;11.548;2023-07-30T09:50:16;1.98;;;1.70;;
31390;SDS011;18022;45.492;11.548;2023-07-30T09:52:42;1.83;;;1.70;;
31390;SDS011;18022;45.492;11.548;2023-07-30T09:55:09;1.80;;;1.70;;
31390;SDS011;18022;45.492;11.548;2023-07-30T09:57:38;1.80;;;1.48;;
31390;SDS011;18022;45.492;11.548;2023-07-30T10:00:04;1.50;;;1.40;;
31390;SDS011;18022;45.492;11.548;2023-07-30T10:02:32;1.42;;;1.33;;
31390;SDS011;18022;45.492;11.548;2023-07-30T10:05:02;1.50;;;1.40;;
31390;SDS011;18022;45.492;11.548;2023-07-30T10:07:31;1.40;;;1.30;;
31390;SDS011;18022;45.492;11.548;2023-07-30T10:09:58;2.03;;;1.88;;
31390;SDS011;18022;45.492;11.548;2023-07-30T10:12:28;1.98;;;1.60;;
31390;SDS011;18022;45.492;11.548;2023-07-30T10:14:56;1.77;;;1.67;;
31390;SDS011;18022;45.492;11.548;2023-07-30T10:17:22;1.95;;;1.60;;
31390;SDS011;18022;45.492;11.548;2023-07-30T10:19:48;2.10;;;1.48;;
31390;SDS011;18022;45.492;11.548;2023-07-30T10:24:59;1.70;;;1.60;;
31390;SDS011;18022;45.492;11.548;2023-07-30T10:27:35;2.45;;;1.58;;
31390;SDS011;18022;45.492;11.548;2023-07-30T10:30:13;1.70;;;1.48;;
31390;SDS011;18022;45.492;11.548;2023-07-30T10:35:07;2.83;;;1.80;;
31390;SDS011;18022;45.492;11.548;2023-07-30T10:37:32;1.80;;;1.70;;
31390;SDS011;18022;45.492;11.548;2023-07-30T10:39:58;1.60;;;1.50;;
31390;SDS011;18022;45.492;11.548;2023-07-30T10:42:26;1.70;;;1.45;;
31390;SDS011;18022;45.492;11.548;2023-07-30T10:44:59;1.83;;;1.50;;
31390;SDS011;18022;45.492;11.548;2023-07-30T10:47:26;2.05;;;1.70;;
31390;SDS011;18022;45.492;11.548;2023-07-30T10:49:52;2.10;;;1.90;;
31390;SDS011;18022;45.492;11.548;2023-07-30T10:52:24;3.70;;;2.75;;
31390;SDS011;18022;45.492;11.548;2023-07-30T10:54:59;3.15;;;2.70;;
31390;SDS011;18022;45.492;11.548;2023-07-30T10:57:29;6.57;;;3.75;;
31390;SDS011;18022;45.492;11.548;2023-07-30T10:59:59;2.72;;;2.28;;
31390;SDS011;18022;45.492;11.548;2023-07-30T11:02:25;2.33;;;2.00;;
31390;SDS011;18022;45.492;11.548;2023-07-30T11:04:50;2.03;;;1.90;;
31390;SDS011;18022;45.492;11.548;2023-07-30T11:07:17;2.22;;;1.70;;
31390;SDS011;18022;45.492;11.548;2023-07-30T11:09:44;2.97;;;2.30;;
31390;SDS011;18022;45.492;11.548;2023-07-30T11:12:10;3.72;;;2.30;;
31390;SDS011;18022;45.492;11.548;2023-07-30T11:14:35;1.75;;;1.65;;
31390;SDS011;18022;45.492;11.548;2023-07-30T11:17:01;2.33;;;1.73;;
31390;SDS011;18022;45.492;11.548;2023-07-30T11:19:27;3.15;;;1.80;;
31390;SDS011;18022;45.492;11.548;2023-07-30T11:21:55;2.00;;;1.80;;
31390;SDS011;18022;45.492;11.548;2023-07-30T11:24:34;2.22;;;1.90;;
31390;SDS011;18022;45.492;11.548;2023-07-30T11:27:00;2.05;;;1.80;;
31390;SDS011;18022;45.492;11.548;2023-07-30T11:29:27;1.90;;;1.60;;
31390;SDS011;18022;45.492;11.548;2023-07-30T11:31:55;2.30;;;1.75;;
31390;SDS011;18022;45.492;11.548;2023-07-30T11:34:23;2.30;;;1.77;;
31390;SDS011;18022;45.492;11.548;2023-07-30T11:36:49;1.60;;;1.50;;
31390;SDS011;18022;45.492;11.548;2023-07-30T11:39:15;1.70;;;1.60;;
31390;SDS011;18022;45.492;11.548;2023-07-30T11:41:41;2.20;;;2.00;;
31390;SDS011;18022;45.492;11.548;2023-07-30T11:44:07;2.08;;;1.70;;
31390;SDS011;18022;45.492;11.548;2023-07-30T11:46:33;2.65;;;1.70;;
31390;SDS011;18022;45.492;11.548;2023-07-30T11:49:11;1.70;;;1.50;;
31390;SDS011;18022;45.492;11.548;2023-07-30T11:51:42;2.08;;;1.88;;
31390;SDS011;18022;45.492;11.548;2023-07-30T11:54:17;1.75;;;1.60;;
31390;SDS011;18022;45.492;11.548;2023-07-30T11:56:53;2.25;;;1.75;;
31390;SDS011;18022;45.492;11.548;2023-07-30T11:59:22;2.20;;;1.52;;
31390;SDS011;18022;45.492;11.548;2023-07-30T12:01:48;1.77;;;1.63;;
31390;SDS011;18022;45.492;11.548;2023-07-30T12:04:14;2.13;;;1.88;;
31390;SDS011;18022;45.492;11.548;2023-07-30T12:06:43;1.80;;;1.60;;
31390;SDS011;18022;45.492;11.548;2023-07-30T12:09:14;2.30;;;1.83;;
31390;SDS011;18022;45.492;11.548;2023-07-30T12:14:44;1.50;;;1.40;;
31390;SDS011;18022;45.492;11.548;2023-07-30T12:17:14;2.15;;;1.50;;
31390;SDS011;18022;45.492;11.548;2023-07-30T12:19:40;4.20;;;1.90;;
31390;SDS011;18022;45.492;11.548;2023-07-30T12:22:06;1.63;;;1.52;;
31390;SDS011;18022;45.492;11.548;2023-07-30T12:24:32;2.03;;;1.75;;
31390;SDS011;18022;45.492;11.548;2023-07-30T12:26:58;2.35;;;1.70;;
31390;SDS011;18022;45.492;11.548;2023-07-30T12:29:25;1.90;;;1.80;;
31390;SDS011;18022;45.492;11.548;2023-07-30T12:31:51;2.50;;;1.65;;
31390;SDS011;18022;45.492;11.548;2023-07-30T12:34:22;2.55;;;2.00;;
31390;SDS011;18022;45.492;11.548;2023-07-30T12:36:48;1.65;;;1.55;;
31390;SDS011;18022;45.492;11.548;2023-07-30T12:39:14;1.58;;;1.48;;
31390;SDS011;18022;45.492;11.548;2023-07-30T12:41:40;3.55;;;1.80;;
31390;SDS011;18022;45.492;11.548;2023-07-30T12:44:05;3.30;;;1.90;;
31390;SDS011;18022;45.492;11.548;2023-07-30T12:46:31;1.88;;;1.77;;
31390;SDS011;18022;45.492;11.548;2023-07-30T12:48:58;2.63;;;2.40;;
31390;SDS011;18022;45.492;11.548;2023-07-30T12:51:29;2.60;;;2.40;;
31390;SDS011;18022;45.492;11.548;2023-07-30T12:53:55;2.87;;;2.27;;
31390;SDS011;18022;45.492;11.548;2023-07-30T12:56:21;2.63;;;2.42;;
31390;SDS011;18022;45.492;11.548;2023-07-30T12:58:47;4.65;;;2.83;;
31390;SDS011;18022;45.492;11.548;2023-07-30T13:01:12;2.53;;;2.33;;
31390;SDS011;18022;45.492;11.548;2023-07-30T13:03:38;2.95;;;2.60;;
31390;SDS011;18022;45.492;11.548;2023-07-30T13:06:04;3.85;;;2.50;;
31390;SDS011;18022;45.492;11.548;2023-07-30T13:08:30;2.53;;;2.33;;
31390;SDS011;18022;45.492;11.548;2023-07-30T13:10:56;3.25;;;2.60;;
31390;SDS011;18022;45.492;11.548;2023-07-30T13:13:21;7.57;;;2.60;;
31390;SDS011;18022;45.492;11.548;2023-07-30T13:15:48;3.30;;;2.63;;
31390;SDS011;18022;45.492;11.548;2023-07-30T13:18:14;2.67;;;2.25;;
31390;SDS011;18022;45.492;11.548;2023-07-30T13:20:40;2.65;;;2.45;;
31390;SDS011;18022;45.492;11.548;2023-07-30T13:23:05;3.90;;;2.47;;
31390;SDS011;18022;45.492;11.548;2023-07-30T13:25:32;2.45;;;2.25;;
31390;SDS011;18022;45.492;11.548;2023-07-30T13:27:57;3.92;;;2.40;;
31390;SDS011;18022;45.492;11.548;2023-07-30T13:30:23;2.40;;;2.20;;
31390;SDS011;18022;45.492;11.548;2023-07-30T13:32:49;2.70;;;2.42;;
31390;SDS011;18022;45.492;11.548;2023-07-30T13:35:14;2.60;;;2.40;;
31390;SDS011;18022;45.492;11.548;2023-07-30T13:37:40;3.05;;;2.60;;
31390;SDS011;18022;45.492;11.548;2023-07-30T13:40:06;2.45;;;2.25;;
31390;SDS011;18022;45.492;11.548;2023-07-30T13:42:32;2.97;;;2.67;;
31390;SDS011;18022;45.492;11.548;2023-07-30T13:44:58;4.03;;;2.45;;
31390;SDS011;18022;45.492;11.548;2023-07-30T13:47:25;2.58;;;2.30;;
31390;SDS011;18022;45.492;11.548;2023-07-30T13:49:50;3.13;;;2.50;;
31390;SDS011;18022;45.492;11.548;2023-07-30T13:52:17;2.67;;;2.33;;
31390;SDS011;18022;45.492;11.548;2023-07-30T13:54:42;4.28;;;2.40;;
31390;SDS011;18022;45.492;11.548;2023-07-30T13:57:10;2.47;;;2.38;;
31390;SDS011;18022;45.492;11.548;2023-07-30T13:59:36;2.20;;;2.00;;
31390;SDS011;18022;45.492;11.548;2023-07-30T14:02:02;3.13;;;2.25;;
31390;SDS011;18022;45.492;11.548;2023-07-30T14:04:28;2.47;;;2.30;;
31390;SDS011;18022;45.492;11.548;2023-07-30T14:06:54;2.47;;;2.20;;
31390;SDS011;18022;45.492;11.548;2023-07-30T14:09:19;5.05;;;2.47;;
31390;SDS011;18022;45.492;11.548;2023-07-30T14:11:45;2.72;;;2.50;;
31390;SDS011;18022;45.492;11.548;2023-07-30T14:14:11;2.20;;;2.00;;
31390;SDS011;18022;45.492;11.548;2023-07-30T14:16:37;2.60;;;2.40;;
31390;SDS011;18022;45.492;11.548;2023-07-30T14:19:03;2.28;;;2.17;;
31390;SDS011;18022;45.492;11.548;2023-07-30T14:21:29;2.67;;;2.47;;
31390;SDS011;18022;45.492;11.548;2023-07-30T14:23:54;4.15;;;2.47;;
31390;SDS011;18022;45.492;11.548;2023-07-30T14:26:20;2.78;;;2.58;;
31390;SDS011;18022;45.492;11.548;2023-07-30T14:28:46;3.83;;;2.75;;
31390;SDS011;18022;45.492;11.548;2023-07-30T14:31:11;2.60;;;2.40;;
31390;SDS011;18022;45.492;11.548;2023-07-30T14:33:40;3.90;;;2.72;;
31390;SDS011;18022;45.492;11.548;2023-07-30T14:36:06;3.38;;;2.63;;
31390;SDS011;18022;45.492;11.548;2023-07-30T14:38:32;2.40;;;2.20;;
31390;SDS011;18022;45.492;11.548;2023-07-30T14:40:59;2.97;;;2.63;;
31390;SDS011;18022;45.492;11.548;2023-07-30T14:43:25;2.40;;;2.20;;